sensor_id;sensor_type;location;lat;lon;timestamp;temperature;humidity
59857;DHT22;45733;52.668;6.860;2024-03-22T00:00:42;11.90;1.00
59857;DHT22;45733;52.668;6.860;2024-03-22T00:03:07;11.90;1.00
59857;DHT22;45733;52.668;6.860;2024-03-22T00:05:33;12.00;1.00
59857;DHT22;45733;52.668;6.860;2024-03-22T00:07:58;11.90;1.00
59857;DHT22;45733;52.668;6.860;2024-03-22T00:10:24;11.90;1.00
59857;DHT22;45733;52.668;6.860;2024-03-22T00:12:50;12.00;22.20
59857;DHT22;45733;52.668;6.860;2024-03-22T00:15:16;12.00;46.80
59857;DHT22;45733;52.668;6.860;2024-03-22T00:17:45;12.00;25.70
59857;DHT22;45733;52.668;6.860;2024-03-22T00:20:11;12.00;24.40
59857;DHT22;45733;52.668;6.860;2024-03-22T00:22:36;12.00;48.10
59857;DHT22;45733;52.668;6.860;2024-03-22T00:25:02;12.00;99.90
59857;DHT22;45733;52.668;6.860;2024-03-22T00:27:28;12.10;99.90
59857;DHT22;45733;52.668;6.860;2024-03-22T00:29:53;12.10;99.90
59857;DHT22;45733;52.668;6.860;2024-03-22T00:32:19;12.10;99.90
59857;DHT22;45733;52.668;6.860;2024-03-22T00:34:45;12.10;99.90
59857;DHT22;45733;52.668;6.860;2024-03-22T00:37:11;12.10;99.90
59857;DHT22;45733;52.668;6.860;2024-03-22T00:39:36;12.10;99.90
59857;DHT22;45733;52.668;6.860;2024-03-22T00:42:02;12.20;99.90
59857;DHT22;45733;52.668;6.860;2024-03-22T00:44:28;12.20;99.90
59857;DHT22;45733;52.668;6.860;2024-03-22T00:46:54;12.20;99.90
59857;DHT22;45733;52.668;6.860;2024-03-22T00:49:19;12.20;99.90
59857;DHT22;45733;52.668;6.860;2024-03-22T00:51:45;12.20;99.90
59857;DHT22;45733;52.668;6.860;2024-03-22T00:54:12;12.20;99.90
59857;DHT22;45733;52.668;6.860;2024-03-22T00:56:38;12.10;99.90
59857;DHT22;45733;52.668;6.860;2024-03-22T00:59:04;12.20;99.90
59857;DHT22;45733;52.668;6.860;2024-03-22T01:01:29;12.20;99.90
59857;DHT22;45733;52.668;6.860;2024-03-22T01:03:55;12.20;99.90
59857;DHT22;45733;52.668;6.860;2024-03-22T01:06:21;12.20;1.00
59857;DHT22;45733;52.668;6.860;2024-03-22T01:08:50;12.20;1.00
59857;DHT22;45733;52.668;6.860;2024-03-22T01:11:17;12.30;1.00
59857;DHT22;45733;52.668;6.860;2024-03-22T01:13:43;12.30;1.00
59857;DHT22;45733;52.668;6.860;2024-03-22T01:16:09;12.30;1.00
59857;DHT22;45733;52.668;6.860;2024-03-22T01:18:35;12.30;1.00
59857;DHT22;45733;52.668;6.860;2024-03-22T01:21:01;12.30;1.00
59857;DHT22;45733;52.668;6.860;2024-03-22T01:23:27;12.30;1.00
59857;DHT22;45733;52.668;6.860;2024-03-22T01:25:53;12.30;6.90
59857;DHT22;45733;52.668;6.860;2024-03-22T01:28:18;12.30;36.00
59857;DHT22;45733;52.668;6.860;2024-03-22T01:30:44;12.40;18.90
59857;DHT22;45733;52.668;6.860;2024-03-22T01:33:10;12.40;92.90
59857;DHT22;45733;52.668;6.860;2024-03-22T01:35:35;12.40;99.90
59857;DHT22;45733;52.668;6.860;2024-03-22T01:38:01;12.40;99.90
59857;DHT22;45733;52.668;6.860;2024-03-22T01:40:27;12.40;99.90
59857;DHT22;45733;52.668;6.860;2024-03-22T01:42:55;12.40;99.90
59857;DHT22;45733;52.668;6.860;2024-03-22T01:45:21;12.50;99.90
59857;DHT22;45733;52.668;6.860;2024-03-22T01:47:52;12.40;99.90
59857;DHT22;45733;52.668;6.860;2024-03-22T01:50:22;12.40;99.90
59857;DHT22;45733;52.668;6.860;2024-03-22T01:52:48;12.40;99.90
59857;DHT22;45733;52.668;6.860;2024-03-22T01:55:14;12.50;99.90
59857;DHT22;45733;52.668;6.860;2024-03-22T01:57:40;12.50;99.90
59857;DHT22;45733;52.668;6.860;2024-03-22T02:00:06;12.50;99.90
59857;DHT22;45733;52.668;6.860;2024-03-22T02:02:34;12.50;99.90
59857;DHT22;45733;52.668;6.860;2024-03-22T02:05:10;12.40;99.90
59857;DHT22;45733;52.668;6.860;2024-03-22T02:07:36;12.50;99.90
59857;DHT22;45733;52.668;6.860;2024-03-22T02:10:02;12.40;99.90
59857;DHT22;45733;52.668;6.860;2024-03-22T02:12:28;12.40;99.90
59857;DHT22;45733;52.668;6.860;2024-03-22T02:14:57;12.50;99.90
59857;DHT22;45733;52.668;6.860;2024-03-22T02:17:22;12.50;99.90
59857;DHT22;45733;52.668;6.860;2024-03-22T02:19:48;12.50;99.90
59857;DHT22;45733;52.668;6.860;2024-03-22T02:22:14;12.60;99.90
59857;DHT22;45733;52.668;6.860;2024-03-22T02:24:39;12.50;99.90
59857;DHT22;45733;52.668;6.860;2024-03-22T02:27:05;12.60;99.90
59857;DHT22;45733;52.668;6.860;2024-03-22T02:29:30;12.50;99.90
59857;DHT22;45733;52.668;6.860;2024-03-22T02:31:56;12.50;99.90
59857;DHT22;45733;52.668;6.860;2024-03-22T02:34:23;12.60;99.90
59857;DHT22;45733;52.668;6.860;2024-03-22T02:36:49;12.60;99.90
59857;DHT22;45733;52.668;6.860;2024-03-22T02:39:15;12.60;99.90
59857;DHT22;45733;52.668;6.860;2024-03-22T02:41:40;12.70;99.90
59857;DHT22;45733;52.668;6.860;2024-03-22T02:44:06;12.60;99.90
59857;DHT22;45733;52.668;6.860;2024-03-22T02:46:32;12.70;99.90
59857;DHT22;45733;52.668;6.860;2024-03-22T02:48:57;12.70;99.90
59857;DHT22;45733;52.668;6.860;2024-03-22T02:51:23;12.70;99.90
59857;DHT22;45733;52.668;6.860;2024-03-22T02:53:49;12.80;99.90
59857;DHT22;45733;52.668;6.860;2024-03-22T02:56:15;12.80;99.90
59857;DHT22;45733;52.668;6.860;2024-03-22T02:58:41;12.80;99.90
59857;DHT22;45733;52.668;6.860;2024-03-22T03:01:06;12.70;99.90
59857;DHT22;45733;52.668;6.860;2024-03-22T03:03:32;12.70;99.90
59857;DHT22;45733;52.668;6.860;2024-03-22T03:05:57;12.80;99.90
59857;DHT22;45733;52.668;6.860;2024-03-22T03:08:23;12.80;99.90
59857;DHT22;45733;52.668;6.860;2024-03-22T03:10:49;12.80;99.90
59857;DHT22;45733;52.668;6.860;2024-03-22T03:13:15;12.80;99.90
59857;DHT22;45733;52.668;6.860;2024-03-22T03:15:40;12.90;99.90
59857;DHT22;45733;52.668;6.860;2024-03-22T03:18:06;12.90;99.90
59857;DHT22;45733;52.668;6.860;2024-03-22T03:20:32;12.80;99.90
59857;DHT22;45733;52.668;6.860;2024-03-22T03:22:57;12.90;99.90
59857;DHT22;45733;52.668;6.860;2024-03-22T03:25:25;12.80;99.90
59857;DHT22;45733;52.668;6.860;2024-03-22T03:27:51;12.80;99.90
59857;DHT22;45733;52.668;6.860;2024-03-22T03:30:17;13.00;99.90
59857;DHT22;45733;52.668;6.860;2024-03-22T03:32:43;12.90;99.90
59857;DHT22;45733;52.668;6.860;2024-03-22T03:35:08;12.90;99.90
59857;DHT22;45733;52.668;6.860;2024-03-22T03:37:34;12.80;99.90
59857;DHT22;45733;52.668;6.860;2024-03-22T03:40:00;12.90;99.90
59857;DHT22;45733;52.668;6.860;2024-03-22T03:42:25;12.90;99.90
59857;DHT22;45733;52.668;6.860;2024-03-22T03:44:51;12.80;99.90
59857;DHT22;45733;52.668;6.860;2024-03-22T03:47:17;12.80;99.90
59857;DHT22;45733;52.668;6.860;2024-03-22T03:49:45;12.90;99.90
59857;DHT22;45733;52.668;6.860;2024-03-22T03:52:11;12.90;99.90
59857;DHT22;45733;52.668;6.860;2024-03-22T03:54:36;13.00;99.90
59857;DHT22;45733;52.668;6.860;2024-03-22T03:57:02;13.00;99.90
59857;DHT22;45733;52.668;6.860;2024-03-22T03:59:28;12.90;99.90
59857;DHT22;45733;52.668;6.860;2024-03-22T04:01:54;12.90;99.90
59857;DHT22;45733;52.668;6.860;2024-03-22T04:04:20;13.00;99.90
59857;DHT22;45733;52.668;6.860;2024-03-22T04:06:45;12.90;99.90
59857;DHT22;45733;52.668;6.860;2024-03-22T04:09:26;13.00;99.90
59857;DHT22;45733;52.668;6.860;2024-03-22T04:11:52;12.90;99.90
59857;DHT22;45733;52.668;6.860;2024-03-22T04:14:18;13.00;99.90
59857;DHT22;45733;52.668;6.860;2024-03-22T04:16:44;13.00;99.90
59857;DHT22;45733;52.668;6.860;2024-03-22T04:19:10;13.00;99.90
59857;DHT22;45733;52.668;6.860;2024-03-22T04:21:35;13.00;99.90
59857;DHT22;45733;52.668;6.860;2024-03-22T04:24:01;12.80;99.90
59857;DHT22;45733;52.668;6.860;2024-03-22T04:26:27;13.00;99.90
59857;DHT22;45733;52.668;6.860;2024-03-22T04:28:52;12.90;99.90
59857;DHT22;45733;52.668;6.860;2024-03-22T04:31:18;13.00;99.90
59857;DHT22;45733;52.668;6.860;2024-03-22T04:33:44;13.00;99.90
59857;DHT22;45733;52.668;6.860;2024-03-22T04:36:09;12.90;99.90
59857;DHT22;45733;52.668;6.860;2024-03-22T04:38:35;12.80;99.90
59857;DHT22;45733;52.668;6.860;2024-03-22T04:41:01;12.90;99.90
59857;DHT22;45733;52.668;6.860;2024-03-22T04:43:28;13.00;99.90
59857;DHT22;45733;52.668;6.860;2024-03-22T04:45:54;12.90;99.90
59857;DHT22;45733;52.668;6.860;2024-03-22T04:48:21;12.90;99.90
59857;DHT22;45733;52.668;6.860;2024-03-22T04:50:47;13.00;99.90
59857;DHT22;45733;52.668;6.860;2024-03-22T04:53:16;13.00;99.90
59857;DHT22;45733;52.668;6.860;2024-03-22T04:55:43;13.00;99.90
59857;DHT22;45733;52.668;6.860;2024-03-22T04:58:12;13.00;99.90
59857;DHT22;45733;52.668;6.860;2024-03-22T05:00:38;13.00;99.90
59857;DHT22;45733;52.668;6.860;2024-03-22T05:03:04;12.90;99.90
59857;DHT22;45733;52.668;6.860;2024-03-22T05:05:29;13.00;99.90
59857;DHT22;45733;52.668;6.860;2024-03-22T05:07:55;12.90;99.90
59857;DHT22;45733;52.668;6.860;2024-03-22T05:10:21;13.00;99.90
59857;DHT22;45733;52.668;6.860;2024-03-22T05:12:49;13.00;99.90
59857;DHT22;45733;52.668;6.860;2024-03-22T05:15:15;13.10;99.90
59857;DHT22;45733;52.668;6.860;2024-03-22T05:17:41;13.00;99.90
59857;DHT22;45733;52.668;6.860;2024-03-22T05:20:08;13.00;99.90
59857;DHT22;45733;52.668;6.860;2024-03-22T05:22:37;13.10;99.90
59857;DHT22;45733;52.668;6.860;2024-03-22T05:25:03;13.00;99.90
59857;DHT22;45733;52.668;6.860;2024-03-22T05:27:31;13.00;99.90
59857;DHT22;45733;52.668;6.860;2024-03-22T05:29:56;13.10;99.90
59857;DHT22;45733;52.668;6.860;2024-03-22T05:32:22;13.10;99.90
59857;DHT22;45733;52.668;6.860;2024-03-22T05:34:48;13.00;99.90
59857;DHT22;45733;52.668;6.860;2024-03-22T05:37:13;13.10;99.90
59857;DHT22;45733;52.668;6.860;2024-03-22T05:39:39;13.00;99.90
59857;DHT22;45733;52.668;6.860;2024-03-22T05:42:07;13.10;99.90
59857;DHT22;45733;52.668;6.860;2024-03-22T05:44:33;13.10;99.90
59857;DHT22;45733;52.668;6.860;2024-03-22T05:46:59;13.10;99.90
59857;DHT22;45733;52.668;6.860;2024-03-22T05:49:24;13.00;99.90
59857;DHT22;45733;52.668;6.860;2024-03-22T05:51:50;13.10;99.90
59857;DHT22;45733;52.668;6.860;2024-03-22T05:54:16;13.10;99.90
59857;DHT22;45733;52.668;6.860;2024-03-22T05:56:41;13.10;99.90
59857;DHT22;45733;52.668;6.860;2024-03-22T05:59:07;13.10;99.90
59857;DHT22;45733;52.668;6.860;2024-03-22T06:01:33;13.00;99.90
59857;DHT22;45733;52.668;6.860;2024-03-22T06:03:58;13.20;99.90
59857;DHT22;45733;52.668;6.860;2024-03-22T06:06:24;13.10;99.90
59857;DHT22;45733;52.668;6.860;2024-03-22T06:08:53;13.20;99.90
59857;DHT22;45733;52.668;6.860;2024-03-22T06:11:20;13.10;99.90
59857;DHT22;45733;52.668;6.860;2024-03-22T06:13:47;12.90;99.90
59857;DHT22;45733;52.668;6.860;2024-03-22T06:16:13;13.00;99.90
59857;DHT22;45733;52.668;6.860;2024-03-22T06:18:39;13.00;99.90
59857;DHT22;45733;52.668;6.860;2024-03-22T06:21:06;12.90;99.90
59857;DHT22;45733;52.668;6.860;2024-03-22T06:23:32;12.80;99.90
59857;DHT22;45733;52.668;6.860;2024-03-22T06:25:58;13.00;99.90
59857;DHT22;45733;52.668;6.860;2024-03-22T06:28:25;13.00;99.90
59857;DHT22;45733;52.668;6.860;2024-03-22T06:30:51;13.00;99.90
59857;DHT22;45733;52.668;6.860;2024-03-22T06:33:19;13.00;99.90
59857;DHT22;45733;52.668;6.860;2024-03-22T06:35:45;12.90;99.90
59857;DHT22;45733;52.668;6.860;2024-03-22T06:38:11;12.80;99.90
59857;DHT22;45733;52.668;6.860;2024-03-22T06:40:36;12.80;99.90
59857;DHT22;45733;52.668;6.860;2024-03-22T06:43:02;12.80;99.90
59857;DHT22;45733;52.668;6.860;2024-03-22T06:45:28;12.70;99.90
59857;DHT22;45733;52.668;6.860;2024-03-22T06:47:53;12.80;99.90
59857;DHT22;45733;52.668;6.860;2024-03-22T06:50:19;12.90;99.90
59857;DHT22;45733;52.668;6.860;2024-03-22T06:52:53;12.80;99.90
59857;DHT22;45733;52.668;6.860;2024-03-22T06:55:19;12.80;99.90
59857;DHT22;45733;52.668;6.860;2024-03-22T06:57:47;12.80;99.90
59857;DHT22;45733;52.668;6.860;2024-03-22T07:00:13;12.80;99.90
59857;DHT22;45733;52.668;6.860;2024-03-22T07:02:39;12.80;99.90
59857;DHT22;45733;52.668;6.860;2024-03-22T07:05:06;13.00;99.90
59857;DHT22;45733;52.668;6.860;2024-03-22T07:07:32;13.00;99.90
59857;DHT22;45733;52.668;6.860;2024-03-22T07:09:58;13.10;99.90
59857;DHT22;45733;52.668;6.860;2024-03-22T07:12:24;13.10;99.90
59857;DHT22;45733;52.668;6.860;2024-03-22T07:14:50;13.10;99.90
59857;DHT22;45733;52.668;6.860;2024-03-22T07:17:15;13.10;99.90
59857;DHT22;45733;52.668;6.860;2024-03-22T07:19:42;13.00;99.90
59857;DHT22;45733;52.668;6.860;2024-03-22T07:22:08;13.00;99.90
59857;DHT22;45733;52.668;6.860;2024-03-22T07:24:34;13.00;99.90
59857;DHT22;45733;52.668;6.860;2024-03-22T07:26:59;13.00;99.90
59857;DHT22;45733;52.668;6.860;2024-03-22T07:29:25;12.90;99.90
59857;DHT22;45733;52.668;6.860;2024-03-22T07:31:51;12.90;99.90
59857;DHT22;45733;52.668;6.860;2024-03-22T07:34:16;12.80;99.90
59857;DHT22;45733;52.668;6.860;2024-03-22T07:36:42;13.00;99.90
59857;DHT22;45733;52.668;6.860;2024-03-22T07:39:07;12.80;99.90
59857;DHT22;45733;52.668;6.860;2024-03-22T07:41:33;12.90;99.90
59857;DHT22;45733;52.668;6.860;2024-03-22T07:44:00;13.00;99.90
59857;DHT22;45733;52.668;6.860;2024-03-22T07:46:26;12.90;99.90
59857;DHT22;45733;52.668;6.860;2024-03-22T07:48:52;13.10;99.90
59857;DHT22;45733;52.668;6.860;2024-03-22T07:51:18;13.00;99.90
59857;DHT22;45733;52.668;6.860;2024-03-22T07:53:44;13.00;99.90
59857;DHT22;45733;52.668;6.860;2024-03-22T07:56:10;13.00;99.90
59857;DHT22;45733;52.668;6.860;2024-03-22T07:58:35;13.20;99.90
59857;DHT22;45733;52.668;6.860;2024-03-22T08:01:01;13.20;99.90
59857;DHT22;45733;52.668;6.860;2024-03-22T08:03:27;13.20;99.90
59857;DHT22;45733;52.668;6.860;2024-03-22T08:05:53;13.20;99.90
59857;DHT22;45733;52.668;6.860;2024-03-22T08:08:19;13.10;99.90
59857;DHT22;45733;52.668;6.860;2024-03-22T08:10:44;13.10;99.90
59857;DHT22;45733;52.668;6.860;2024-03-22T08:13:10;13.10;99.90
59857;DHT22;45733;52.668;6.860;2024-03-22T08:15:36;13.10;99.90
59857;DHT22;45733;52.668;6.860;2024-03-22T08:18:02;13.10;99.90
59857;DHT22;45733;52.668;6.860;2024-03-22T08:20:28;13.20;99.90
59857;DHT22;45733;52.668;6.860;2024-03-22T08:22:54;13.20;99.90
59857;DHT22;45733;52.668;6.860;2024-03-22T08:25:20;13.10;99.90
59857;DHT22;45733;52.668;6.860;2024-03-22T08:27:46;13.20;99.90
59857;DHT22;45733;52.668;6.860;2024-03-22T08:30:13;13.30;99.90
59857;DHT22;45733;52.668;6.860;2024-03-22T08:32:41;13.20;99.90
59857;DHT22;45733;52.668;6.860;2024-03-22T08:35:07;13.10;26.00
59857;DHT22;45733;52.668;6.860;2024-03-22T08:37:33;13.20;1.00
59857;DHT22;45733;52.668;6.860;2024-03-22T08:39:59;13.20;1.00
59857;DHT22;45733;52.668;6.860;2024-03-22T08:42:25;13.20;1.00
59857;DHT22;45733;52.668;6.860;2024-03-22T08:44:50;13.10;1.00
59857;DHT22;45733;52.668;6.860;2024-03-22T08:47:16;13.10;1.00
59857;DHT22;45733;52.668;6.860;2024-03-22T08:49:42;13.10;1.00
59857;DHT22;45733;52.668;6.860;2024-03-22T08:52:10;13.10;99.90
59857;DHT22;45733;52.668;6.860;2024-03-22T08:54:35;13.10;99.90
59857;DHT22;45733;52.668;6.860;2024-03-22T08:57:01;13.10;99.90
59857;DHT22;45733;52.668;6.860;2024-03-22T08:59:27;13.10;99.90
59857;DHT22;45733;52.668;6.860;2024-03-22T09:01:53;13.20;99.90
59857;DHT22;45733;52.668;6.860;2024-03-22T09:04:19;13.10;99.90
59857;DHT22;45733;52.668;6.860;2024-03-22T09:06:44;13.10;1.00
59857;DHT22;45733;52.668;6.860;2024-03-22T09:09:10;13.10;1.00
59857;DHT22;45733;52.668;6.860;2024-03-22T09:11:36;13.10;1.00
59857;DHT22;45733;52.668;6.860;2024-03-22T09:14:02;13.10;1.00
59857;DHT22;45733;52.668;6.860;2024-03-22T09:16:28;13.10;1.00
59857;DHT22;45733;52.668;6.860;2024-03-22T09:18:53;13.10;1.00
59857;DHT22;45733;52.668;6.860;2024-03-22T09:21:22;13.10;1.00
59857;DHT22;45733;52.668;6.860;2024-03-22T09:23:59;13.00;46.60
59857;DHT22;45733;52.668;6.860;2024-03-22T09:26:25;13.00;99.90
59857;DHT22;45733;52.668;6.860;2024-03-22T09:28:51;13.00;99.90
59857;DHT22;45733;52.668;6.860;2024-03-22T09:31:17;13.00;99.90
59857;DHT22;45733;52.668;6.860;2024-03-22T09:33:43;12.80;99.90
59857;DHT22;45733;52.668;6.860;2024-03-22T09:36:08;12.90;99.90
59857;DHT22;45733;52.668;6.860;2024-03-22T09:38:34;12.90;99.90
59857;DHT22;45733;52.668;6.860;2024-03-22T09:41:00;12.90;99.90
59857;DHT22;45733;52.668;6.860;2024-03-22T09:43:27;12.80;99.90
59857;DHT22;45733;52.668;6.860;2024-03-22T09:45:55;12.80;99.90
59857;DHT22;45733;52.668;6.860;2024-03-22T09:48:20;12.80;99.90
59857;DHT22;45733;52.668;6.860;2024-03-22T09:50:46;12.70;99.90
59857;DHT22;45733;52.668;6.860;2024-03-22T09:53:18;12.90;99.90
59857;DHT22;45733;52.668;6.860;2024-03-22T09:55:46;12.70;99.90
59857;DHT22;45733;52.668;6.860;2024-03-22T09:58:12;12.60;99.90
59857;DHT22;45733;52.668;6.860;2024-03-22T10:00:38;12.70;99.90
59857;DHT22;45733;52.668;6.860;2024-03-22T10:03:04;12.80;99.90
59857;DHT22;45733;52.668;6.860;2024-03-22T10:05:31;12.70;99.90
59857;DHT22;45733;52.668;6.860;2024-03-22T10:07:56;13.00;99.90
59857;DHT22;45733;52.668;6.860;2024-03-22T10:10:23;12.90;99.90
59857;DHT22;45733;52.668;6.860;2024-03-22T10:12:48;13.00;99.90
59857;DHT22;45733;52.668;6.860;2024-03-22T10:15:14;12.90;99.90
59857;DHT22;45733;52.668;6.860;2024-03-22T10:17:42;12.90;99.90
59857;DHT22;45733;52.668;6.860;2024-03-22T10:20:08;13.00;99.90
59857;DHT22;45733;52.668;6.860;2024-03-22T10:22:58;13.00;99.90
59857;DHT22;45733;52.668;6.860;2024-03-22T10:25:26;13.00;99.90
59857;DHT22;45733;52.668;6.860;2024-03-22T10:27:54;13.00;99.90
59857;DHT22;45733;52.668;6.860;2024-03-22T10:30:21;12.90;99.90
59857;DHT22;45733;52.668;6.860;2024-03-22T10:32:48;13.10;99.90
59857;DHT22;45733;52.668;6.860;2024-03-22T10:35:14;13.00;99.90
59857;DHT22;45733;52.668;6.860;2024-03-22T10:37:40;13.10;99.90
59857;DHT22;45733;52.668;6.860;2024-03-22T10:40:07;13.10;99.90
59857;DHT22;45733;52.668;6.860;2024-03-22T10:42:37;13.00;99.90
59857;DHT22;45733;52.668;6.860;2024-03-22T10:45:04;13.00;99.90
59857;DHT22;45733;52.668;6.860;2024-03-22T10:47:32;13.30;99.90
59857;DHT22;45733;52.668;6.860;2024-03-22T10:50:10;13.10;99.90
59857;DHT22;45733;52.668;6.860;2024-03-22T10:52:52;13.20;99.90
59857;DHT22;45733;52.668;6.860;2024-03-22T10:55:28;13.30;99.90
59857;DHT22;45733;52.668;6.860;2024-03-22T10:57:57;13.10;99.90
59857;DHT22;45733;52.668;6.860;2024-03-22T11:00:33;13.30;99.90
59857;DHT22;45733;52.668;6.860;2024-03-22T11:03:01;13.10;99.90
59857;DHT22;45733;52.668;6.860;2024-03-22T11:05:27;13.20;99.90
59857;DHT22;45733;52.668;6.860;2024-03-22T11:08:05;13.30;99.90
59857;DHT22;45733;52.668;6.860;2024-03-22T11:10:34;13.10;99.90
59857;DHT22;45733;52.668;6.860;2024-03-22T11:13:07;13.20;99.90
59857;DHT22;45733;52.668;6.860;2024-03-22T11:15:34;13.00;99.90
59857;DHT22;45733;52.668;6.860;2024-03-22T11:18:03;13.10;99.90
59857;DHT22;45733;52.668;6.860;2024-03-22T11:20:31;13.20;99.90
59857;DHT22;45733;52.668;6.860;2024-03-22T11:22:57;13.20;99.90
59857;DHT22;45733;52.668;6.860;2024-03-22T11:25:23;13.00;99.90
59857;DHT22;45733;52.668;6.860;2024-03-22T11:27:49;13.00;99.90
59857;DHT22;45733;52.668;6.860;2024-03-22T11:30:18;13.20;99.90
59857;DHT22;45733;52.668;6.860;2024-03-22T11:32:43;13.20;99.90
59857;DHT22;45733;52.668;6.860;2024-03-22T11:35:11;13.20;99.90
59857;DHT22;45733;52.668;6.860;2024-03-22T11:37:41;13.00;99.90
59857;DHT22;45733;52.668;6.860;2024-03-22T11:40:09;13.00;99.90
59857;DHT22;45733;52.668;6.860;2024-03-22T11:42:36;13.00;99.90
59857;DHT22;45733;52.668;6.860;2024-03-22T11:45:03;13.00;99.90
59857;DHT22;45733;52.668;6.860;2024-03-22T11:47:30;13.00;99.90
59857;DHT22;45733;52.668;6.860;2024-03-22T11:49:56;12.90;99.90
59857;DHT22;45733;52.668;6.860;2024-03-22T11:52:28;13.20;99.90
59857;DHT22;45733;52.668;6.860;2024-03-22T11:54:54;13.10;99.90
59857;DHT22;45733;52.668;6.860;2024-03-22T11:57:21;12.90;99.90
59857;DHT22;45733;52.668;6.860;2024-03-22T11:59:47;13.20;99.90
59857;DHT22;45733;52.668;6.860;2024-03-22T12:02:12;13.20;99.90
59857;DHT22;45733;52.668;6.860;2024-03-22T12:04:47;13.00;99.90
59857;DHT22;45733;52.668;6.860;2024-03-22T12:07:13;13.10;99.90
59857;DHT22;45733;52.668;6.860;2024-03-22T12:09:41;13.00;99.90
59857;DHT22;45733;52.668;6.860;2024-03-22T12:12:09;13.00;99.90
59857;DHT22;45733;52.668;6.860;2024-03-22T12:14:35;13.30;99.90
59857;DHT22;45733;52.668;6.860;2024-03-22T12:17:07;13.40;99.90
59857;DHT22;45733;52.668;6.860;2024-03-22T12:19:33;13.30;99.90
59857;DHT22;45733;52.668;6.860;2024-03-22T12:21:59;13.30;99.90
59857;DHT22;45733;52.668;6.860;2024-03-22T12:24:25;13.60;99.90
59857;DHT22;45733;52.668;6.860;2024-03-22T12:26:51;13.40;99.90
59857;DHT22;45733;52.668;6.860;2024-03-22T12:29:17;13.50;99.90
59857;DHT22;45733;52.668;6.860;2024-03-22T12:31:43;13.20;99.90
59857;DHT22;45733;52.668;6.860;2024-03-22T12:34:09;13.20;99.90
59857;DHT22;45733;52.668;6.860;2024-03-22T12:36:35;13.30;99.90
59857;DHT22;45733;52.668;6.860;2024-03-22T12:39:02;13.20;99.90
59857;DHT22;45733;52.668;6.860;2024-03-22T12:41:29;13.30;99.90
59857;DHT22;45733;52.668;6.860;2024-03-22T12:43:55;13.40;99.90
59857;DHT22;45733;52.668;6.860;2024-03-22T12:46:21;13.30;99.90
59857;DHT22;45733;52.668;6.860;2024-03-22T12:48:47;13.20;99.90
59857;DHT22;45733;52.668;6.860;2024-03-22T12:51:12;13.40;99.90
59857;DHT22;45733;52.668;6.860;2024-03-22T12:53:38;13.30;99.90
59857;DHT22;45733;52.668;6.860;2024-03-22T12:56:04;13.40;99.90
59857;DHT22;45733;52.668;6.860;2024-03-22T12:58:30;13.30;99.90
59857;DHT22;45733;52.668;6.860;2024-03-22T13:00:57;13.60;99.90
59857;DHT22;45733;52.668;6.860;2024-03-22T13:03:22;13.70;99.90
59857;DHT22;45733;52.668;6.860;2024-03-22T13:05:48;13.50;99.90
59857;DHT22;45733;52.668;6.860;2024-03-22T13:08:14;13.70;99.90
59857;DHT22;45733;52.668;6.860;2024-03-22T13:10:39;13.60;99.90
59857;DHT22;45733;52.668;6.860;2024-03-22T13:13:11;13.50;99.90
59857;DHT22;45733;52.668;6.860;2024-03-22T13:15:45;13.70;99.90
59857;DHT22;45733;52.668;6.860;2024-03-22T13:18:12;13.70;99.90
59857;DHT22;45733;52.668;6.860;2024-03-22T13:20:38;13.70;99.90
59857;DHT22;45733;52.668;6.860;2024-03-22T13:23:04;13.50;99.90
59857;DHT22;45733;52.668;6.860;2024-03-22T13:25:30;13.80;99.90
59857;DHT22;45733;52.668;6.860;2024-03-22T13:27:56;13.70;99.90
59857;DHT22;45733;52.668;6.860;2024-03-22T13:30:22;13.70;99.90
59857;DHT22;45733;52.668;6.860;2024-03-22T13:32:47;13.50;99.90
59857;DHT22;45733;52.668;6.860;2024-03-22T13:35:13;13.50;99.90
59857;DHT22;45733;52.668;6.860;2024-03-22T13:37:40;13.60;99.90
59857;DHT22;45733;52.668;6.860;2024-03-22T13:40:07;13.50;99.90
59857;DHT22;45733;52.668;6.860;2024-03-22T13:42:32;13.50;99.90
59857;DHT22;45733;52.668;6.860;2024-03-22T13:44:58;13.20;99.90
59857;DHT22;45733;52.668;6.860;2024-03-22T13:47:25;13.10;99.90
59857;DHT22;45733;52.668;6.860;2024-03-22T13:49:51;13.00;99.90
59857;DHT22;45733;52.668;6.860;2024-03-22T13:52:16;12.90;99.90
59857;DHT22;45733;52.668;6.860;2024-03-22T13:54:43;12.80;99.90
59857;DHT22;45733;52.668;6.860;2024-03-22T13:57:09;12.50;99.90
59857;DHT22;45733;52.668;6.860;2024-03-22T13:59:35;12.50;99.90
59857;DHT22;45733;52.668;6.860;2024-03-22T14:02:01;12.50;99.90
59857;DHT22;45733;52.668;6.860;2024-03-22T14:04:27;12.10;99.90
59857;DHT22;45733;52.668;6.860;2024-03-22T14:06:54;12.40;99.90
59857;DHT22;45733;52.668;6.860;2024-03-22T14:09:20;12.30;99.90
59857;DHT22;45733;52.668;6.860;2024-03-22T14:11:45;12.20;1.00
59857;DHT22;45733;52.668;6.860;2024-03-22T14:14:14;12.30;1.00
59857;DHT22;45733;52.668;6.860;2024-03-22T14:16:40;12.30;97.10
59857;DHT22;45733;52.668;6.860;2024-03-22T14:19:07;12.30;99.90
59857;DHT22;45733;52.668;6.860;2024-03-22T14:21:34;12.30;99.90
59857;DHT22;45733;52.668;6.860;2024-03-22T14:23:59;12.30;99.90
59857;DHT22;45733;52.668;6.860;2024-03-22T14:26:25;12.20;99.90
59857;DHT22;45733;52.668;6.860;2024-03-22T14:28:51;12.20;99.90
59857;DHT22;45733;52.668;6.860;2024-03-22T14:31:18;12.20;99.90
59857;DHT22;45733;52.668;6.860;2024-03-22T14:33:45;12.20;99.90
59857;DHT22;45733;52.668;6.860;2024-03-22T14:36:10;12.10;99.90
59857;DHT22;45733;52.668;6.860;2024-03-22T14:38:38;12.20;99.90
59857;DHT22;45733;52.668;6.860;2024-03-22T14:41:04;12.30;99.90
59857;DHT22;45733;52.668;6.860;2024-03-22T14:43:30;12.10;99.90
59857;DHT22;45733;52.668;6.860;2024-03-22T14:46:01;12.30;99.90
59857;DHT22;45733;52.668;6.860;2024-03-22T14:48:30;12.30;99.90
59857;DHT22;45733;52.668;6.860;2024-03-22T14:50:56;12.30;99.90
59857;DHT22;45733;52.668;6.860;2024-03-22T14:53:21;12.40;99.90
59857;DHT22;45733;52.668;6.860;2024-03-22T14:56:02;12.40;99.90
59857;DHT22;45733;52.668;6.860;2024-03-22T14:58:32;12.40;99.90
59857;DHT22;45733;52.668;6.860;2024-03-22T15:01:00;12.30;99.90
59857;DHT22;45733;52.668;6.860;2024-03-22T15:03:27;12.40;99.90
59857;DHT22;45733;52.668;6.860;2024-03-22T15:05:54;12.40;99.90
59857;DHT22;45733;52.668;6.860;2024-03-22T15:08:21;12.40;99.90
59857;DHT22;45733;52.668;6.860;2024-03-22T15:10:47;12.30;99.90
59857;DHT22;45733;52.668;6.860;2024-03-22T15:13:14;12.40;99.90
59857;DHT22;45733;52.668;6.860;2024-03-22T15:15:40;12.50;99.90
59857;DHT22;45733;52.668;6.860;2024-03-22T15:18:07;12.50;99.90
59857;DHT22;45733;52.668;6.860;2024-03-22T15:20:33;12.60;99.90
59857;DHT22;45733;52.668;6.860;2024-03-22T15:22:58;12.60;99.90
59857;DHT22;45733;52.668;6.860;2024-03-22T15:25:24;12.50;99.90
59857;DHT22;45733;52.668;6.860;2024-03-22T15:27:51;12.60;99.90